Adamsdale, Pennsylvania
Current Conditions -  °F | °C
As of 10:54 AM on Wednesday 26 Nov 2014 (Local Time) from KRDG Reporting Station
Light Snow Light Snow  
Wind Chill: 27°   Ceiling: 800
Heat Index: 34°   Visibility: 1.5mi
Dew Point: 32°   Wind: 8mph
Humidity: 92%   Direction: 20°NNE
Pressure: 30.07"   Gusts: NA
Location:  40.6412°N, 76.1672°W
Report Text: KRDG 261554Z 02007KT 1 1/2SM -SN BR OVC008 01/00 A3007 RMK AO2 SFC VIS 1 3/4 RAE32 SLP192 P0005 T00110000
Loading
Personal Weather Stations






























Interactive Weather Map New forecast layout! Learn more

10-Day Weather Forecast

Advertisements
Track Severe Weather on mobile